Weather History for Wright-Patt AFB, OH

Change the Weather History Date:

Sunday, February 3, 2013

  Actual Average Record
Temperature  
Mean Temperature 20 °F -  
Max Temperature 26 °F 37 °F 57 °F (2003)
Min Temperature 14 °F 21 °F 4 °F (2007)
Degree Days  
Heating Degree Days 44    
Moisture  
Dew Point 13 °F    
Average Humidity 72    
Maximum Humidity 82    
Minimum Humidity 60    
Precipitation  
Precipitation 0.00 in - - ()
Snow  
Snow 0.00 in - - ()
Snow Depth 1.00 in    
Sea Level Pressure  
Sea Level Pressure 30.02 in    
Wind  
Wind Speed 9 mph (WSW)    
Max Wind Speed 16 mph    
Max Gust Speed 23 mph    
Visibility 8 miles    
Events Snow    
Averages and records for this station are not official NWS values.
T = Trace of Precipitation, MM = Missing Value Source: NWS Daily Summary

Daily Weather History Graph

Daily Weather History Graph

Search for Another Location

Airport:

Trip Planner

Search our weather history database for the weather conditions in past years. The results will help you decide how hot, cold, wet, or windy it might be!

Date:

Astronomy

Feb. 03, 2013 Rise Set
Actual Time 7:42 AM EST 5:58 PM EST
Civil Twilight 7:13 AM EST 6:26 PM EST
Nautical Twilight 6:41 AM EST 6:59 PM EST
Astronomical Twilight 6:09 AM EST 7:30 PM EST
Moon 1:08 AM EST (2/3) 11:35 AM EST (2/3)
Length of Visible Light 11h 13m
Length of Day
10h 16m
Waning Gibbous, 49% of the Moon is Illuminated
Feb 3
Waning Gibbous
Feb 10
New
Feb 17
First Quarter
Feb 25
Full
Mar 4
Last Quarter

Hourly Weather History & Observations

Time (EST) Temp. Windchill Dew Point Humidity Pressure Visibility Wind Dir Wind Speed Gust Speed Precip Events Conditions
12:08 AM 26.6 °F 20.0 °F 19.4 °F 74% 30.03 in 10.0 mi WNW 5.8 mph - N/A Snow Light Snow
12:18 AM 26.6 °F 18.2 °F 19.4 °F 74% 30.03 in 10.0 mi West 8.1 mph - N/A   Overcast
12:29 AM 26.6 °F 19.1 °F 17.6 °F 69% 30.03 in 10.0 mi West 6.9 mph - N/A Snow Light Snow
12:33 AM 26.6 °F 17.5 °F 17.6 °F 69% 30.02 in 10.0 mi West 9.2 mph - N/A   Overcast
12:55 AM 25.7 °F 19.0 °F 18.5 °F 74% 30.02 in 10.0 mi West 5.8 mph - 0.00 in   Overcast
1:10 AM 26.6 °F 20.0 °F 17.6 °F 69% 30.01 in 10.0 mi West 5.8 mph - N/A   Overcast
1:55 AM 25.3 °F 19.7 °F 19.0 °F 77% 30.00 in 10.0 mi West 4.6 mph - N/A   Overcast
2:55 AM 25.2 °F 20.9 °F 19.2 °F 78% 29.98 in 10.0 mi WNW 3.5 mph - N/A   Overcast
3:03 AM 24.8 °F 19.1 °F 19.4 °F 80% 29.98 in 10.0 mi WNW 4.6 mph - N/A Snow Light Snow
3:36 AM 23.0 °F 17.0 °F 17.6 °F 80% 29.98 in 5.0 mi WNW 4.6 mph - N/A Snow Light Snow
3:55 AM 23.4 °F 18.9 °F 18.5 °F 82% 29.97 in 6.0 mi WNW 3.5 mph - 0.00 in Snow Light Snow
4:03 AM 23.0 °F 18.4 °F 17.6 °F 80% 29.97 in 8.0 mi West 3.5 mph - N/A Snow Light Snow
4:32 AM 23.0 °F 15.8 °F 17.6 °F 80% 29.96 in 10.0 mi West 5.8 mph - N/A   Overcast
4:55 AM 23.0 °F 17.0 °F 17.1 °F 78% 29.96 in 10.0 mi West 4.6 mph - 0.00 in   Overcast
5:55 AM 21.9 °F 10.4 °F 14.4 °F 73% 29.94 in 10.0 mi SW 11.5 mph - N/A   Overcast
6:55 AM 17.4 °F 5.4 °F 10.9 °F 76% 29.94 in 10.0 mi WSW 10.4 mph - N/A   Mostly Cloudy
7:11 AM 17.6 °F 5.7 °F 10.4 °F 73% 29.95 in 10.0 mi SW 10.4 mph - N/A   Overcast
7:45 AM 17.6 °F 6.4 °F 10.4 °F 73% 29.96 in 10.0 mi WSW 9.2 mph - N/A   Overcast
7:55 AM 17.4 °F 5.4 °F 11.1 °F 76% 29.97 in 10.0 mi WSW 10.4 mph - N/A   Overcast
8:16 AM 17.6 °F 5.7 °F 12.2 °F 79% 29.97 in 5.0 mi WSW 10.4 mph - N/A Snow Light Snow
8:37 AM 17.6 °F 6.4 °F 12.2 °F 79% 29.97 in 2.0 mi WSW 9.2 mph - N/A Snow Light Snow
8:46 AM 17.6 °F 6.4 °F 12.2 °F 79% 29.97 in 2.5 mi SW 9.2 mph - N/A Snow Light Snow
8:55 AM 17.4 °F 6.2 °F 12.6 °F 81% 29.97 in 2.5 mi SW 9.2 mph - 0.00 in Snow Light Snow
9:01 AM 17.6 °F 7.3 °F 12.2 °F 79% 29.97 in 3.0 mi WSW 8.1 mph - N/A Snow Light Snow
9:12 AM 17.6 °F 6.4 °F 12.2 °F 79% 29.97 in 5.0 mi WSW 9.2 mph - N/A Snow Light Snow
9:41 AM 17.6 °F 5.0 °F 12.2 °F 79% 29.98 in 5.0 mi WSW 11.5 mph - N/A   Overcast
9:55 AM 18.3 °F 5.2 °F 12.4 °F 78% 29.98 in 5.0 mi West 12.7 mph - 0.00 in   Overcast
10:03 AM 19.4 °F 6.6 °F 12.2 °F 74% 29.98 in 5.0 mi WSW 12.7 mph - N/A Snow Light Snow
10:07 AM 19.4 °F 7.9 °F 12.2 °F 74% 29.98 in 5.0 mi SW 10.4 mph - N/A Snow Light Snow
10:37 AM 17.6 °F 5.0 °F 12.2 °F 79% 29.99 in 5.0 mi WSW 11.5 mph - N/A   Overcast
10:55 AM 18.5 °F 5.5 °F 11.3 °F 73% 29.99 in 5.0 mi WSW 12.7 mph - 0.00 in   Overcast
11:07 AM 19.4 °F 7.9 °F 10.4 °F 68% 29.99 in 10.0 mi West 10.4 mph - N/A   Overcast
11:27 AM 19.4 °F 6.6 °F 10.4 °F 68% 29.99 in 10.0 mi West 12.7 mph - N/A   Overcast
11:31 AM 19.4 °F 7.2 °F 10.4 °F 68% 29.99 in 10.0 mi West 11.5 mph - N/A   Overcast
11:36 AM 19.4 °F 7.9 °F 8.6 °F 63% 29.99 in 10.0 mi West 10.4 mph - N/A   Overcast
11:55 AM 19.4 °F 7.9 °F 10.0 °F 67% 29.99 in 10.0 mi WNW 10.4 mph - N/A   Overcast
12:55 PM 19.9 °F 7.9 °F 8.2 °F 61% 30.04 in 10.0 mi West 11.5 mph - N/A   Overcast
1:55 PM 19.9 °F 7.9 °F 7.9 °F 60% 29.99 in 10.0 mi West 11.5 mph - N/A   Overcast
2:35 PM 21.2 °F 10.1 °F 10.4 °F 63% 30.01 in 10.0 mi West 10.4 mph - N/A   Overcast
2:49 PM 21.2 °F 9.5 °F 10.4 °F 63% 30.01 in 10.0 mi West 11.5 mph - N/A Snow Light Snow
2:55 PM 21.2 °F 10.1 °F 9.9 °F 62% 30.01 in 10.0 mi West 10.4 mph - 0.00 in   Overcast
3:02 PM 21.2 °F 8.9 °F 10.4 °F 63% 30.01 in 10.0 mi West 12.7 mph - N/A Snow Light Snow
3:15 PM 21.2 °F 8.9 °F 10.4 °F 63% 30.02 in 10.0 mi WSW 12.7 mph - N/A   Overcast
3:46 PM 21.2 °F 8.3 °F 10.4 °F 63% 30.03 in 10.0 mi West 13.8 mph - N/A Snow Light Snow
3:55 PM 21.7 °F 10.2 °F 11.1 °F 64% 30.04 in 10.0 mi West 11.5 mph - 0.00 in Snow Light Snow
3:59 PM 21.2 °F 9.5 °F 10.4 °F 63% 30.04 in 10.0 mi WSW 11.5 mph - N/A   Overcast
4:26 PM 21.2 °F 7.8 °F 10.4 °F 63% 30.05 in 10.0 mi West 15.0 mph - N/A   Overcast
4:55 PM 21.9 °F 10.4 °F 11.5 °F 64% 30.06 in 10.0 mi West 11.5 mph - 0.00 in   Overcast
5:45 PM 23.0 °F 10.6 °F 12.2 °F 63% 30.06 in 10.0 mi WSW 13.8 mph 19.6 mph N/A Snow Light Snow
5:55 PM 22.3 °F 10.8 °F 13.3 °F 68% 30.07 in 10.0 mi WSW 11.5 mph - 0.00 in Snow Light Snow
6:25 PM 21.2 °F 10.1 °F 14.0 °F 74% 30.07 in 10.0 mi SW 10.4 mph - N/A   Overcast
6:55 PM 21.6 °F 11.3 °F 14.7 °F 75% 30.09 in 10.0 mi SW 9.2 mph - 0.00 in   Overcast
7:01 PM 21.2 °F 10.9 °F 14.0 °F 74% 30.09 in 10.0 mi WSW 9.2 mph - N/A   Overcast
7:03 PM 21.2 °F 11.7 °F 14.0 °F 74% 30.09 in 5.0 mi WSW 8.1 mph - N/A Snow Light Snow
7:14 PM 21.2 °F 9.5 °F 15.8 °F 80% 30.09 in 5.0 mi WSW 11.5 mph - N/A   Overcast
7:48 PM 21.2 °F 10.9 °F 15.8 °F 80% 30.10 in 5.0 mi SW 9.2 mph - N/A Snow Light Snow
7:55 PM 21.6 °F 10.6 °F 16.3 °F 80% 30.10 in 5.0 mi SW 10.4 mph - 0.00 in Snow Light Snow
8:05 PM 21.2 °F 8.9 °F 15.8 °F 80% 30.11 in 4.0 mi WSW 12.7 mph - N/A Snow Light Snow
8:15 PM 23.0 °F 9.6 °F 14.0 °F 68% 30.11 in 4.0 mi West 16.1 mph 23.0 mph N/A Snow Light Snow
8:20 PM 21.2 °F 7.3 °F 12.2 °F 68% 30.11 in 7.0 mi West 16.1 mph - N/A   Mostly Cloudy
8:55 PM 21.2 °F 9.5 °F 12.0 °F 68% 30.12 in 10.0 mi West 11.5 mph - 0.00 in   Scattered Clouds
9:55 PM 18.5 °F 9.3 °F 11.1 °F 73% 30.13 in 10.0 mi WSW 6.9 mph - N/A   Partly Cloudy
10:55 PM 15.1 °F 5.2 °F 9.5 °F 79% 30.13 in 10.0 mi SW 6.9 mph - N/A   Clear
11:55 PM 14.2 °F 3.1 °F 9.7 °F 82% 30.14 in 10.0 mi SW 8.1 mph - N/A   Clear